Time;durP1;ratioP1;P1;durP2;ratioP2;P2;SDS_P1;SDS_P2;PMS_P1;PMS_P2;Temp;Humidity;BMP_temperature;BMP_pressure;BME280_temperature;BME280_humidity;BME280_pressure;Samples;Min_cycle;Max_cycle;Signal;HPM_P1;HPM_P2
2023/08/07 00:00:30;;;;;;;1.20;0.43;;;10.30;99.90;;;;;;4994767;28;20030;-72
2023/08/07 00:02:56;;;;;;;2.05;0.50;;;10.40;99.90;;;;;;4994674;28;20041;-72
2023/08/07 00:05:22;;;;;;;0.90;0.50;;;10.40;99.90;;;;;;4994667;28;20106;-72
2023/08/07 00:07:47;;;;;;;1.23;0.50;;;10.40;99.90;;;;;;4994530;28;20054;-72
2023/08/07 00:10:14;;;;;;;1.13;0.43;;;10.40;99.90;;;;;;4993504;28;20032;-72
2023/08/07 00:12:40;;;;;;;0.70;0.47;;;10.30;99.90;;;;;;4994550;28;20072;-72
2023/08/07 00:15:06;;;;;;;0.50;0.22;;;10.30;99.90;;;;;;4994861;28;20034;-72
2023/08/07 00:17:32;;;;;;;0.43;0.30;;;10.20;99.90;;;;;;4994587;28;20046;-72
2023/08/07 00:19:58;;;;;;;0.90;0.40;;;10.20;99.90;;;;;;4994892;28;20039;-72
2023/08/07 00:22:25;;;;;;;0.77;0.32;;;10.20;99.90;;;;;;4994311;28;20469;-72
2023/08/07 00:24:51;;;;;;;1.10;0.40;;;10.30;99.90;;;;;;4994359;28;20058;-72
2023/08/07 00:27:16;;;;;;;0.85;0.40;;;10.30;99.90;;;;;;4993085;28;20077;-72
2023/08/07 00:29:42;;;;;;;0.85;0.40;;;10.30;99.90;;;;;;4994333;28;20436;-72
2023/08/07 00:32:08;;;;;;;2.15;0.50;;;10.30;99.90;;;;;;4994304;28;20042;-72
2023/08/07 00:34:34;;;;;;;2.38;0.30;;;10.20;99.90;;;;;;4994227;28;20064;-72
2023/08/07 00:37:00;;;;;;;1.10;0.32;;;10.20;99.90;;;;;;4994216;28;20524;-72
2023/08/07 00:39:26;;;;;;;0.52;0.25;;;10.20;99.90;;;;;;4993053;28;20113;-72
2023/08/07 00:41:51;;;;;;;1.30;0.50;;;10.20;99.90;;;;;;4993112;28;20030;-72
2023/08/07 00:44:17;;;;;;;0.55;0.32;;;10.20;99.90;;;;;;4994181;28;20031;-72
2023/08/07 00:46:43;;;;;;;0.60;0.30;;;10.20;99.90;;;;;;4992951;28;20073;-72
2023/08/07 00:49:11;;;;;;;1.35;0.40;;;10.20;99.90;;;;;;4994075;28;20519;-72
2023/08/07 00:51:39;;;;;;;0.70;0.30;;;10.20;99.90;;;;;;4993623;28;20089;-72
2023/08/07 00:54:05;;;;;;;1.27;0.30;;;10.20;99.90;;;;;;4994323;28;20050;-72
2023/08/07 00:56:32;;;;;;;1.33;0.57;;;10.20;99.90;;;;;;4994528;28;20480;-72
2023/08/07 00:58:58;;;;;;;1.02;0.40;;;10.30;99.90;;;;;;4994154;28;20085;-72
2023/08/07 01:01:25;;;;;;;0.95;0.43;;;10.30;99.90;;;;;;4993783;28;20515;-72
2023/08/07 01:03:51;;;;;;;0.52;0.32;;;10.20;99.90;;;;;;4992702;28;20037;-72
2023/08/07 01:06:16;;;;;;;0.70;0.30;;;10.20;99.90;;;;;;5010952;28;20424;-72
2023/08/07 01:08:43;;;;;;;0.90;0.30;;;10.20;99.90;;;;;;5016333;28;20152;-72
2023/08/07 01:11:43;;;;;;;0.85;0.38;;;10.20;99.90;;;;;;5013307;28;20037;-72
2023/08/07 01:14:27;;;;;;;1.00;0.50;;;10.20;99.90;;;;;;5017706;28;20028;-72
2023/08/07 01:17:06;;;;;;;0.22;0.20;;;10.20;99.90;;;;;;5012950;28;20069;-72
2023/08/07 01:19:33;;;;;;;0.63;0.35;;;10.20;99.90;;;;;;5012015;28;20419;-72
2023/08/07 01:22:19;;;;;;;2.67;0.40;;;10.20;99.90;;;;;;5013101;28;20030;-72
2023/08/07 01:24:47;;;;;;;1.05;0.50;;;10.20;99.90;;;;;;5015272;28;20022;-72
2023/08/07 01:27:19;;;;;;;0.60;0.30;;;10.20;99.90;;;;;;5013167;28;20026;-72
2023/08/07 01:30:03;;;;;;;2.08;0.50;;;10.20;99.90;;;;;;5013004;28;20492;-72
2023/08/07 01:32:36;;;;;;;0.90;0.40;;;10.20;99.90;;;;;;5013073;28;20041;-73
2023/08/07 01:35:02;;;;;;;0.50;0.30;;;10.20;99.90;;;;;;5013151;28;20072;-72
2023/08/07 01:37:31;;;;;;;0.77;0.30;;;10.20;99.90;;;;;;5013045;28;20033;-71
2023/08/07 01:40:00;;;;;;;1.15;0.38;;;10.20;99.90;;;;;;5012121;28;20037;-72
2023/08/07 01:42:26;;;;;;;0.65;0.40;;;10.20;99.90;;;;;;5011960;28;20369;-72
2023/08/07 01:44:52;;;;;;;0.28;0.28;;;10.10;99.90;;;;;;5012530;28;20041;-72
2023/08/07 01:47:18;;;;;;;0.73;0.40;;;10.10;99.90;;;;;;5012558;28;20022;-72
2023/08/07 01:49:44;;;;;;;2.10;0.80;;;10.10;99.90;;;;;;5012419;28;20022;-71
2023/08/07 01:52:11;;;;;;;2.55;1.10;;;10.10;99.90;;;;;;5013236;28;20029;-71
2023/08/07 01:54:36;;;;;;;1.95;1.13;;;10.10;99.90;;;;;;5011919;28;20117;-71
2023/08/07 01:57:02;;;;;;;1.63;0.68;;;10.10;99.90;;;;;;5013013;28;20097;-71
2023/08/07 01:59:28;;;;;;;0.55;0.40;;;10.10;99.90;;;;;;5012259;28;20030;-71
2023/08/07 02:01:54;;;;;;;1.27;0.30;;;10.10;99.90;;;;;;5014263;28;20101;-71
2023/08/07 02:04:19;;;;;;;1.20;0.22;;;10.00;99.90;;;;;;5014653;28;20022;-71
2023/08/07 02:06:45;;;;;;;0.60;0.30;;;9.90;99.90;;;;;;5016485;28;20030;-71
2023/08/07 02:09:10;;;;;;;0.70;0.35;;;9.90;99.90;;;;;;5016364;28;20018;-71
2023/08/07 02:11:36;;;;;;;0.63;0.30;;;9.80;99.90;;;;;;5016449;28;20033;-71
2023/08/07 02:14:02;;;;;;;0.68;0.30;;;9.70;99.90;;;;;;5016642;28;20026;-71
2023/08/07 02:16:28;;;;;;;0.88;0.50;;;9.80;99.90;;;;;;5016589;28;20053;-71
2023/08/07 02:18:54;;;;;;;0.40;0.30;;;9.70;99.90;;;;;;5016179;28;20064;-71
2023/08/07 02:21:19;;;;;;;0.80;0.30;;;9.70;99.90;;;;;;5016206;28;20065;-71
2023/08/07 02:23:45;;;;;;;0.38;0.30;;;9.70;99.90;;;;;;5016110;28;20037;-71
2023/08/07 02:26:11;;;;;;;2.22;0.30;;;9.70;99.90;;;;;;5016197;28;20030;-71
2023/08/07 02:28:36;;;;;;;0.75;0.30;;;9.70;99.90;;;;;;5016038;28;20030;-71
2023/08/07 02:31:02;;;;;;;0.73;0.30;;;9.60;99.90;;;;;;5014791;28;20030;-71
2023/08/07 02:33:30;;;;;;;0.98;0.45;;;9.60;99.90;;;;;;5016000;28;20108;-71
2023/08/07 02:35:56;;;;;;;1.23;0.22;;;9.50;99.90;;;;;;5015973;28;20440;-71
2023/08/07 02:38:21;;;;;;;0.98;0.40;;;9.50;99.90;;;;;;5015844;28;20026;-71
2023/08/07 02:40:47;;;;;;;0.73;0.40;;;9.50;99.90;;;;;;5014623;28;20080;-71
2023/08/07 02:43:13;;;;;;;0.60;0.30;;;9.50;99.90;;;;;;5014585;28;20037;-71
2023/08/07 02:45:38;;;;;;;0.85;0.32;;;9.50;99.90;;;;;;5015949;28;20018;-71
2023/08/07 02:48:05;;;;;;;1.15;0.50;;;9.40;99.90;;;;;;5015902;28;20392;-71
2023/08/07 02:50:32;;;;;;;0.47;0.25;;;9.40;99.90;;;;;;5015751;28;20053;-71
2023/08/07 02:52:59;;;;;;;2.40;0.30;;;9.40;99.90;;;;;;5015677;28;20088;-71
2023/08/07 02:55:25;;;;;;;0.55;0.30;;;9.40;99.90;;;;;;5015642;28;20553;-71
2023/08/07 02:57:50;;;;;;;1.85;0.40;;;9.30;99.90;;;;;;5016109;28;20104;-71
2023/08/07 03:00:16;;;;;;;1.15;0.40;;;9.40;99.90;;;;;;5017204;28;20030;-71
2023/08/07 03:02:42;;;;;;;0.73;0.30;;;9.40;99.90;;;;;;5016606;28;20045;-71
2023/08/07 03:05:08;;;;;;;0.90;0.40;;;9.40;99.90;;;;;;5016549;28;20030;-71
2023/08/07 03:07:34;;;;;;;0.47;0.30;;;9.40;99.90;;;;;;5016667;28;20026;-71
2023/08/07 03:09:59;;;;;;;0.32;0.20;;;9.40;99.90;;;;;;5015854;28;20032;-71
2023/08/07 03:12:25;;;;;;;0.50;0.20;;;9.40;99.90;;;;;;5016390;28;20026;-71
2023/08/07 03:14:51;;;;;;;3.45;0.40;;;9.40;99.90;;;;;;5015406;28;20034;-71
2023/08/07 03:17:16;;;;;;;1.05;0.50;;;9.40;99.90;;;;;;5015996;28;20032;-71
2023/08/07 03:19:43;;;;;;;0.52;0.35;;;9.40;99.90;;;;;;5015801;28;20512;-71
2023/08/07 03:22:09;;;;;;;0.60;0.38;;;9.40;99.90;;;;;;5015255;28;20050;-71
2023/08/07 03:24:35;;;;;;;0.57;0.40;;;9.40;99.90;;;;;;5014617;28;20436;-71
2023/08/07 03:27:00;;;;;;;1.65;0.30;;;9.40;99.90;;;;;;5015355;28;20108;-72
2023/08/07 03:29:26;;;;;;;1.00;0.50;;;9.40;99.90;;;;;;5014394;28;20033;-71
2023/08/07 03:31:52;;;;;;;1.05;0.55;;;9.40;99.90;;;;;;5013651;28;20048;-71
2023/08/07 03:34:17;;;;;;;2.17;0.57;;;9.40;99.90;;;;;;5014883;28;20073;-71
2023/08/07 03:36:44;;;;;;;4.15;1.05;;;9.40;99.90;;;;;;5014846;28;20075;-71
2023/08/07 03:39:11;;;;;;;1.10;0.63;;;9.30;99.90;;;;;;5014840;28;20026;-71
2023/08/07 03:41:37;;;;;;;0.47;0.30;;;9.30;99.90;;;;;;5013705;28;20045;-71
2023/08/07 03:44:03;;;;;;;0.28;0.20;;;9.30;99.90;;;;;;4997208;28;20029;-71
2023/08/07 03:46:29;;;;;;;0.65;0.20;;;9.30;99.90;;;;;;5015088;28;20022;-71
2023/08/07 03:48:54;;;;;;;0.35;0.30;;;9.30;99.90;;;;;;5014689;28;20022;-71
2023/08/07 03:51:20;;;;;;;1.60;0.40;;;9.30;99.90;;;;;;5014732;28;20026;-71
2023/08/07 03:53:46;;;;;;;1.23;0.57;;;9.30;99.90;;;;;;5014594;28;20033;-71
2023/08/07 03:56:11;;;;;;;0.70;0.43;;;9.40;99.90;;;;;;5014428;28;20436;-71
2023/08/07 03:58:38;;;;;;;1.50;0.40;;;9.30;99.90;;;;;;5014233;28;20033;-72
2023/08/07 04:01:04;;;;;;;0.63;0.40;;;9.30;99.90;;;;;;4996843;28;20076;-72
2023/08/07 04:03:30;;;;;;;0.75;0.40;;;9.30;99.90;;;;;;5013936;28;20030;-72
2023/08/07 04:05:55;;;;;;;0.47;0.30;;;9.30;99.90;;;;;;4990739;28;20029;-73
2023/08/07 04:08:22;;;;;;;0.40;0.25;;;9.30;99.90;;;;;;5003587;28;20022;-72
2023/08/07 04:11:02;;;;;;;3.95;0.30;;;9.30;99.90;;;;;;4994526;28;20027;-72
2023/08/07 04:13:28;;;;;;;0.75;0.25;;;9.30;99.90;;;;;;4995245;28;20106;-72
2023/08/07 04:15:54;;;;;;;0.22;0.20;;;9.30;99.90;;;;;;4993379;28;20027;-72
2023/08/07 04:18:20;;;;;;;0.88;0.35;;;9.20;99.90;;;;;;4994365;28;20037;-72
2023/08/07 04:20:52;;;;;;;0.60;0.38;;;9.20;99.90;;;;;;4994793;28;20034;-72
2023/08/07 04:23:18;;;;;;;1.00;0.60;;;9.20;99.90;;;;;;4994311;28;20031;-72
2023/08/07 04:25:44;;;;;;;0.82;0.40;;;9.20;99.90;;;;;;4994443;28;20117;-72
2023/08/07 04:28:10;;;;;;;0.95;0.60;;;9.10;99.90;;;;;;4993614;28;20022;-72
2023/08/07 04:30:36;;;;;;;1.27;0.50;;;9.10;99.90;;;;;;4994363;28;20029;-72
2023/08/07 04:33:02;;;;;;;1.88;0.70;;;9.10;99.90;;;;;;4994370;28;20041;-72
2023/08/07 04:35:28;;;;;;;1.08;0.43;;;9.10;99.90;;;;;;4994314;28;20343;-72
2023/08/07 04:37:53;;;;;;;0.77;0.50;;;9.10;99.90;;;;;;4994221;28;20034;-72
2023/08/07 04:40:19;;;;;;;0.93;0.60;;;9.10;99.90;;;;;;4994515;28;20109;-72
2023/08/07 04:42:45;;;;;;;1.42;0.60;;;9.10;99.90;;;;;;4994413;28;20132;-72
2023/08/07 04:45:10;;;;;;;1.63;0.90;;;9.10;99.90;;;;;;4994141;28;20026;-72
2023/08/07 04:47:37;;;;;;;1.15;0.57;;;9.10;99.90;;;;;;4994081;28;20022;-72
2023/08/07 04:50:03;;;;;;;1.33;0.60;;;9.10;99.90;;;;;;4994385;28;20034;-73
2023/08/07 04:52:29;;;;;;;1.33;0.77;;;9.10;99.90;;;;;;4994143;28;20030;-73
2023/08/07 04:54:54;;;;;;;2.88;1.30;;;9.10;99.90;;;;;;4994018;28;20023;-73
2023/08/07 04:57:20;;;;;;;2.63;1.05;;;9.10;99.90;;;;;;4994222;28;20041;-73
2023/08/07 04:59:46;;;;;;;1.60;0.95;;;9.20;99.90;;;;;;4993969;28;20030;-73
2023/08/07 05:02:12;;;;;;;1.83;0.65;;;9.20;99.90;;;;;;4993808;28;20027;-72
2023/08/07 05:04:37;;;;;;;1.63;0.73;;;9.30;99.90;;;;;;4994486;28;20117;-73
2023/08/07 05:07:03;;;;;;;1.15;0.70;;;9.30;99.90;;;;;;4994173;28;20030;-73
2023/08/07 05:09:29;;;;;;;1.42;0.77;;;9.40;99.90;;;;;;4976387;28;20026;-73
2023/08/07 05:11:54;;;;;;;1.58;0.68;;;9.40;99.90;;;;;;4992902;28;20049;-73
2023/08/07 05:14:20;;;;;;;1.00;0.60;;;9.40;99.90;;;;;;4994373;28;20524;-73
2023/08/07 05:16:48;;;;;;;2.00;1.10;;;9.40;99.90;;;;;;4992878;28;20035;-73
2023/08/07 05:19:13;;;;;;;1.33;0.70;;;9.40;99.90;;;;;;5003528;28;20057;-73
2023/08/07 05:21:39;;;;;;;1.90;0.90;;;9.50;99.90;;;;;;5018448;28;20030;-73
2023/08/07 05:24:05;;;;;;;2.15;1.20;;;9.50;99.90;;;;;;5013202;28;20108;-74
2023/08/07 05:26:31;;;;;;;1.42;0.98;;;9.50;99.90;;;;;;5012576;28;20068;-74
2023/08/07 05:28:58;;;;;;;2.28;1.27;;;9.50;99.90;;;;;;5012767;28;20026;-74
2023/08/07 05:31:24;;;;;;;1.60;0.93;;;9.50;99.90;;;;;;5013248;28;20033;-74
2023/08/07 05:33:50;;;;;;;1.52;0.88;;;9.50;99.90;;;;;;5017269;28;20026;-74
2023/08/07 05:36:16;;;;;;;1.77;0.85;;;9.50;99.90;;;;;;5013060;28;20080;-74
2023/08/07 05:38:42;;;;;;;2.38;0.90;;;9.50;99.90;;;;;;5020353;28;20036;-74
2023/08/07 05:41:09;;;;;;;2.65;1.30;;;9.50;99.90;;;;;;5016516;28;20424;-74
2023/08/07 05:43:35;;;;;;;1.65;0.80;;;9.40;99.90;;;;;;5018623;28;20026;-74
2023/08/07 05:46:00;;;;;;;1.13;0.70;;;9.40;99.90;;;;;;5016840;28;20029;-74
2023/08/07 05:48:26;;;;;;;1.55;0.77;;;9.50;99.90;;;;;;5016626;28;20028;-74
2023/08/07 05:50:52;;;;;;;1.40;0.70;;;9.50;99.90;;;;;;5016682;28;20022;-74
2023/08/07 05:53:19;;;;;;;1.40;0.70;;;9.50;99.90;;;;;;5016623;28;20026;-74
2023/08/07 05:55:45;;;;;;;1.05;0.60;;;9.50;99.90;;;;;;5016325;28;20029;-74
2023/08/07 05:58:10;;;;;;;0.80;0.50;;;9.60;99.90;;;;;;5016454;28;20491;-74
2023/08/07 06:00:36;;;;;;;1.80;0.95;;;9.60;99.90;;;;;;5016731;28;20037;-74
2023/08/07 06:03:02;;;;;;;3.38;1.27;;;9.60;99.90;;;;;;4998956;28;20514;-74
2023/08/07 06:05:27;;;;;;;2.03;1.05;;;9.60;99.90;;;;;;5016401;28;20041;-74
2023/08/07 06:07:53;;;;;;;2.17;1.00;;;9.60;99.90;;;;;;5016540;28;20053;-74
2023/08/07 06:10:19;;;;;;;3.67;1.67;;;9.70;99.90;;;;;;5016640;28;20026;-74
2023/08/07 06:12:44;;;;;;;4.47;2.42;;;9.70;99.90;;;;;;5015270;28;20485;-73
2023/08/07 06:15:10;;;;;;;4.82;2.15;;;9.80;99.90;;;;;;5014995;28;20033;-73
2023/08/07 06:17:36;;;;;;;4.90;1.70;;;9.80;99.90;;;;;;5015820;28;20038;-73
2023/08/07 06:20:04;;;;;;;3.75;1.30;;;9.90;99.90;;;;;;5016262;28;20908;-73
2023/08/07 06:22:30;;;;;;;2.20;1.10;;;9.90;99.90;;;;;;5016089;28;20503;-73
2023/08/07 06:24:55;;;;;;;1.85;0.95;;;10.00;99.90;;;;;;5014877;28;20069;-73
2023/08/07 06:27:22;;;;;;;1.60;0.80;;;10.00;99.90;;;;;;5014615;28;20026;-73
2023/08/07 06:29:47;;;;;;;1.88;0.90;;;10.00;99.90;;;;;;5015972;28;20034;-73
2023/08/07 06:32:13;;;;;;;1.88;0.80;;;10.10;99.90;;;;;;5011098;28;20081;-74
2023/08/07 06:34:39;;;;;;;3.30;1.20;;;10.10;99.90;;;;;;5015928;28;20030;-74
2023/08/07 06:37:05;;;;;;;2.13;1.27;;;10.20;99.90;;;;;;5015943;28;20109;-74
2023/08/07 06:39:31;;;;;;;2.33;1.08;;;10.20;99.90;;;;;;5015726;28;20435;-74
2023/08/07 06:41:57;;;;;;;1.83;0.90;;;10.30;99.90;;;;;;5014127;28;20033;-74
2023/08/07 06:44:22;;;;;;;0.70;0.47;;;10.30;99.90;;;;;;5014575;28;20104;-74
2023/08/07 06:46:48;;;;;;;3.53;0.82;;;10.30;99.90;;;;;;5015585;28;20066;-74
2023/08/07 06:49:14;;;;;;;2.25;1.00;;;10.40;99.90;;;;;;5013928;28;20113;-74
2023/08/07 06:51:40;;;;;;;3.22;1.90;;;10.50;99.90;;;;;;5015231;28;20053;-74
2023/08/07 06:54:05;;;;;;;2.60;1.58;;;10.50;99.90;;;;;;5015489;28;20026;-74
2023/08/07 06:56:31;;;;;;;3.30;1.30;;;10.50;99.90;;;;;;5015212;28;20030;-74
2023/08/07 06:58:56;;;;;;;2.28;1.42;;;10.50;99.90;;;;;;5015337;28;20279;-74
2023/08/07 07:01:22;;;;;;;1.85;1.25;;;10.50;99.90;;;;;;5015343;28;20104;-74
2023/08/07 07:03:52;;;;;;;2.03;1.40;;;10.60;99.90;;;;;;5015227;28;20092;-74
2023/08/07 07:06:21;;;;;;;4.50;3.15;;;10.60;99.90;;;;;;5015378;28;20022;-74
2023/08/07 07:08:46;;;;;;;4.80;3.35;;;10.70;99.90;;;;;;5015364;28;20018;-74
2023/08/07 07:11:12;;;;;;;5.47;2.35;;;10.80;99.90;;;;;;5014828;28;20018;-74
2023/08/07 07:13:38;;;;;;;2.80;1.60;;;10.90;99.90;;;;;;5015215;28;20026;-74
2023/08/07 07:16:03;;;;;;;2.47;1.20;;;11.00;99.90;;;;;;5015140;28;20038;-74
2023/08/07 07:18:29;;;;;;;2.20;1.17;;;11.00;99.90;;;;;;5014911;28;20038;-74
2023/08/07 07:20:59;;;;;;;1.92;1.00;;;11.10;99.90;;;;;;5015002;28;20034;-74
2023/08/07 07:23:25;;;;;;;1.80;1.08;;;11.20;99.90;;;;;;5014911;28;20029;-74
2023/08/07 07:25:51;;;;;;;2.00;1.08;;;11.20;99.90;;;;;;5014645;28;20029;-74
2023/08/07 07:28:17;;;;;;;2.35;1.10;;;11.30;99.90;;;;;;5013674;28;20503;-74
2023/08/07 07:30:42;;;;;;;3.55;1.20;;;11.30;99.90;;;;;;4981000;28;20029;-74
2023/08/07 07:33:08;;;;;;;2.10;0.95;;;11.30;99.90;;;;;;5013843;28;20026;-76
2023/08/07 07:35:38;;;;;;;2.15;1.00;;;11.40;99.90;;;;;;5014861;28;20057;-74
2023/08/07 07:38:04;;;;;;;2.42;1.10;;;11.40;99.90;;;;;;5014618;28;20033;-74
2023/08/07 07:40:30;;;;;;;3.20;1.00;;;11.40;99.90;;;;;;5013133;28;20396;-74
2023/08/07 07:42:56;;;;;;;2.53;1.10;;;11.40;99.90;;;;;;5014059;28;20037;-74
2023/08/07 07:45:21;;;;;;;1.73;0.80;;;11.40;99.90;;;;;;5012965;28;20033;-74
2023/08/07 07:47:47;;;;;;;1.88;0.90;;;11.40;99.90;;;;;;5012849;28;20535;-74
2023/08/07 07:50:13;;;;;;;1.70;1.08;;;11.40;99.90;;;;;;5014512;28;20015;-74
2023/08/07 07:52:39;;;;;;;3.30;1.20;;;11.40;99.90;;;;;;5014725;28;20063;-74
2023/08/07 07:55:05;;;;;;;2.33;0.98;;;11.50;99.90;;;;;;5014679;28;20030;-75
2023/08/07 07:57:31;;;;;;;1.95;0.98;;;11.50;99.90;;;;;;5013320;28;20032;-75
2023/08/07 07:59:58;;;;;;;2.10;1.10;;;11.60;99.90;;;;;;5014654;28;20236;-75
2023/08/07 08:02:24;;;;;;;3.58;1.40;;;11.60;99.90;;;;;;5013415;28;20112;-75
2023/08/07 08:04:51;;;;;;;3.05;1.20;;;11.60;99.90;;;;;;5014651;28;20065;-75
2023/08/07 08:07:16;;;;;;;4.22;1.40;;;11.70;99.90;;;;;;5014396;28;20050;-74
2023/08/07 08:09:42;;;;;;;2.30;1.02;;;11.70;99.90;;;;;;5014293;28;20464;-74
2023/08/07 08:12:08;;;;;;;3.13;1.20;;;11.80;99.90;;;;;;5014293;28;20404;-75
2023/08/07 08:14:34;;;;;;;3.47;1.48;;;11.80;99.90;;;;;;5014508;28;20033;-75
2023/08/07 08:17:00;;;;;;;3.85;1.20;;;11.90;99.90;;;;;;5014242;28;20021;-75
2023/08/07 08:19:25;;;;;;;2.83;1.30;;;11.90;99.90;;;;;;5014764;28;20474;-75
2023/08/07 08:21:51;;;;;;;3.08;0.93;;;12.00;99.90;;;;;;5014357;28;20029;-75
2023/08/07 08:24:16;;;;;;;6.32;1.23;;;12.10;99.90;;;;;;5014375;28;20392;-75
2023/08/07 08:26:42;;;;;;;2.65;1.60;;;12.20;99.90;;;;;;5014071;28;20424;-75
2023/08/07 08:29:08;;;;;;;1.65;0.90;;;12.20;99.90;;;;;;5014263;28;20080;-75
2023/08/07 08:31:34;;;;;;;1.85;0.80;;;12.30;99.90;;;;;;5014148;28;20026;-75
2023/08/07 08:34:00;;;;;;;2.00;0.90;;;12.30;99.90;;;;;;5012797;28;20117;-75
2023/08/07 08:36:25;;;;;;;1.60;0.82;;;12.30;99.90;;;;;;5014028;28;20117;-76
2023/08/07 08:38:51;;;;;;;2.15;0.85;;;12.40;99.90;;;;;;5012679;28;20034;-75
2023/08/07 08:41:19;;;;;;;1.77;0.85;;;12.40;99.90;;;;;;5013964;28;20480;-76
2023/08/07 08:43:46;;;;;;;1.63;0.80;;;12.40;99.90;;;;;;5013876;28;20069;-75
2023/08/07 08:46:16;;;;;;;1.73;0.73;;;12.40;99.90;;;;;;5013833;28;20105;-75
2023/08/07 08:48:46;;;;;;;2.13;0.80;;;12.50;99.90;;;;;;5013814;28;20018;-76
2023/08/07 08:51:13;;;;;;;3.83;1.00;;;12.50;99.90;;;;;;5014299;28;20022;-75
2023/08/07 08:53:39;;;;;;;2.17;0.95;;;12.50;99.90;;;;;;5012449;28;20515;-75
2023/08/07 08:56:06;;;;;;;1.55;0.80;;;12.50;99.90;;;;;;5013651;28;20480;-75
2023/08/07 08:58:32;;;;;;;1.40;0.90;;;12.60;99.90;;;;;;5013756;28;20053;-75
2023/08/07 09:00:58;;;;;;;1.88;0.90;;;12.60;99.90;;;;;;5013868;28;20034;-75
2023/08/07 09:03:25;;;;;;;1.73;0.80;;;12.80;99.90;;;;;;5013574;28;20026;-76
2023/08/07 09:05:54;;;;;;;1.60;0.90;;;12.90;99.90;;;;;;5012559;28;20447;-75
2023/08/07 09:08:21;;;;;;;3.28;1.13;;;13.00;99.90;;;;;;5013654;28;20014;-75
2023/08/07 09:10:46;;;;;;;1.90;0.80;;;13.10;99.90;;;;;;5012734;28;20030;-75
2023/08/07 09:13:17;;;;;;;2.67;1.17;;;13.20;99.90;;;;;;5014901;28;20370;-76
2023/08/07 09:15:47;;;;;;;;;;;13.30;99.90;;;;;;5016832;28;20030;-76
2023/08/07 09:18:13;;;;;;;1.42;0.63;;;13.30;99.90;;;;;;5016118;28;20429;-75
2023/08/07 09:20:40;;;;;;;1.92;0.82;;;13.30;99.90;;;;;;5017539;28;20058;-75
2023/08/07 09:23:05;;;;;;;3.95;1.00;;;13.30;99.90;;;;;;5017497;28;20030;-75
2023/08/07 09:25:33;;;;;;;3.90;1.05;;;13.20;99.90;;;;;;5017464;28;20045;-75
2023/08/07 09:28:04;;;;;;;3.88;1.20;;;13.20;99.90;;;;;;5017561;28;20018;-76
2023/08/07 09:30:30;;;;;;;3.53;0.90;;;13.20;99.90;;;;;;5016052;28;20026;-75
2023/08/07 09:33:00;;;;;;;1.25;0.75;;;13.20;99.90;;;;;;5016159;28;20030;-76
2023/08/07 09:35:26;;;;;;;1.45;0.90;;;13.20;99.90;;;;;;5016195;28;20041;-75
2023/08/07 09:37:52;;;;;;;2.47;0.80;;;13.20;99.90;;;;;;5015902;28;20026;-75
2023/08/07 09:40:18;;;;;;;2.08;0.98;;;13.30;99.90;;;;;;5000251;28;20087;-75
2023/08/07 09:42:44;;;;;;;2.63;1.10;;;13.30;99.90;;;;;;5016949;28;20037;-76
2023/08/07 09:45:19;;;;;;;2.00;1.00;;;13.40;99.90;;;;;;5017087;28;20022;-75
2023/08/07 09:47:45;;;;;;;1.77;0.88;;;13.40;99.90;;;;;;5015850;28;20488;-76
2023/08/07 09:50:17;;;;;;;2.70;0.70;;;13.50;99.90;;;;;;5016955;28;20056;-76
2023/08/07 09:52:47;;;;;;;1.52;0.80;;;13.60;99.90;;;;;;4999538;28;20081;-76
2023/08/07 09:55:15;;;;;;;2.90;1.13;;;13.70;99.90;;;;;;5016137;28;20164;-76
2023/08/07 09:57:43;;;;;;;2.05;0.93;;;13.90;99.90;;;;;;5016786;28;20569;-76
2023/08/07 10:00:19;;;;;;;3.75;0.85;;;13.90;99.90;;;;;;5016951;28;20396;-76
2023/08/07 10:02:49;;;;;;;2.58;1.08;;;13.90;99.90;;;;;;5016889;28;20112;-76
2023/08/07 10:05:15;;;;;;;2.30;0.90;;;13.90;99.90;;;;;;5015461;28;20049;-76
2023/08/07 10:07:42;;;;;;;1.73;0.82;;;13.90;99.90;;;;;;5016846;28;20041;-76
2023/08/07 10:10:09;;;;;;;1.52;1.00;;;13.90;99.90;;;;;;5016764;28;20048;-76
2023/08/07 10:12:36;;;;;;;1.25;0.70;;;13.80;99.90;;;;;;4999302;28;20038;-76
2023/08/07 10:15:03;;;;;;;3.53;1.02;;;13.80;99.90;;;;;;5016643;28;20026;-76
2023/08/07 10:17:29;;;;;;;2.33;1.00;;;13.80;99.90;;;;;;5015308;28;20034;-76
2023/08/07 10:19:57;;;;;;;5.40;2.45;;;13.80;99.90;;;;;;5017245;28;20036;-76
2023/08/07 10:22:29;;;;;;;3.92;2.10;;;13.90;99.90;;;;;;4998993;28;20061;-76
2023/08/07 10:24:58;;;;;;;2.58;1.00;;;14.00;99.90;;;;;;5014008;28;20480;-76
2023/08/07 10:27:25;;;;;;;1.55;0.80;;;14.10;99.90;;;;;;5016406;28;20032;-76
2023/08/07 10:29:53;;;;;;;3.50;1.67;;;14.10;99.90;;;;;;5015011;28;20113;-76
2023/08/07 10:32:20;;;;;;;2.10;1.05;;;14.20;99.90;;;;;;5016277;28;20026;-76
2023/08/07 10:34:52;;;;;;;1.88;1.00;;;14.20;99.90;;;;;;5016361;28;20030;-76
2023/08/07 10:37:42;;;;;;;4.63;0.95;;;14.10;99.90;;;;;;5016274;28;20041;-76
2023/08/07 10:40:10;;;;;;;1.35;0.75;;;14.00;99.90;;;;;;5009904;28;20454;-75
2023/08/07 10:42:54;;;;;;;2.30;1.00;;;14.00;99.90;;;;;;5019336;28;20381;-75
2023/08/07 10:45:22;;;;;;;2.08;0.90;;;14.00;99.90;;;;;;5017268;28;20026;-76
2023/08/07 10:48:01;;;;;;;1.65;0.77;;;14.10;99.90;;;;;;5015380;28;20045;-76
2023/08/07 10:50:34;;;;;;;2.10;1.02;;;14.20;99.90;;;;;;5018884;28;20465;-76
2023/08/07 10:53:02;;;;;;;1.55;0.80;;;14.30;99.90;;;;;;5015314;28;20033;-76
2023/08/07 10:55:44;;;;;;;3.60;0.80;;;14.40;99.90;;;;;;5019379;28;20028;-76
2023/08/07 10:58:29;;;;;;;2.08;0.82;;;14.40;99.90;;;;;;5015514;28;20021;-76
2023/08/07 11:01:32;;;;;;;1.60;0.77;;;14.50;99.90;;;;;;4998617;28;20064;-76
2023/08/07 11:04:14;;;;;;;1.63;0.82;;;14.60;99.90;;;;;;5014393;28;20029;-76
2023/08/07 11:06:42;;;;;;;1.48;0.80;;;14.70;99.90;;;;;;5012231;28;20535;-76
2023/08/07 11:09:10;;;;;;;2.00;0.80;;;14.80;99.90;;;;;;5004852;28;20022;-76
2023/08/07 11:11:46;;;;;;;2.75;0.70;;;14.90;99.90;;;;;;5005286;28;20018;-76
2023/08/07 11:14:17;;;;;;;2.20;0.90;;;14.80;99.90;;;;;;5006062;28;20036;-77
2023/08/07 11:16:44;;;;;;;2.65;1.10;;;14.70;99.90;;;;;;5007000;28;20054;-76
2023/08/07 11:19:11;;;;;;;3.55;1.40;;;14.60;99.90;;;;;;5017972;28;20120;-76
2023/08/07 11:21:37;;;;;;;2.35;0.93;;;14.50;99.90;;;;;;5015582;28;20496;-76
2023/08/07 11:24:03;;;;;;;2.35;1.30;;;14.50;99.90;;;;;;5013703;28;20026;-76
2023/08/07 11:26:29;;;;;;;3.33;1.00;;;14.60;99.90;;;;;;5015150;28;20477;-76
2023/08/07 11:28:55;;;;;;;1.95;1.00;;;14.70;99.90;;;;;;5013835;28;20116;-76
2023/08/07 11:31:24;;;;;;;1.63;0.93;;;14.80;99.90;;;;;;5014988;28;20069;-76
2023/08/07 11:33:54;;;;;;;1.92;0.90;;;14.90;99.90;;;;;;5023235;28;20022;-76
2023/08/07 11:36:20;;;;;;;1.65;0.90;;;14.90;99.90;;;;;;5022870;28;20029;-76
2023/08/07 11:38:46;;;;;;;2.63;1.13;;;14.90;99.90;;;;;;5013546;28;20497;-76
2023/08/07 11:41:14;;;;;;;2.10;1.13;;;14.80;99.90;;;;;;5013543;28;20515;-76
2023/08/07 11:43:40;;;;;;;2.38;1.13;;;14.80;99.90;;;;;;5013522;28;20113;-76
2023/08/07 11:46:08;;;;;;;3.45;1.50;;;14.90;99.90;;;;;;5014770;28;20109;-76
2023/08/07 11:48:36;;;;;;;3.00;1.55;;;14.90;99.90;;;;;;5014414;28;20030;-76
2023/08/07 11:51:03;;;;;;;4.38;2.53;;;14.90;99.90;;;;;;5014505;28;20115;-76
2023/08/07 11:53:31;;;;;;;4.47;2.20;;;15.00;99.90;;;;;;5014473;28;20030;-76
2023/08/07 11:55:59;;;;;;;2.22;1.30;;;15.10;99.90;;;;;;5013481;28;20030;-76
2023/08/07 11:58:27;;;;;;;1.20;0.63;;;15.20;99.90;;;;;;5013071;28;20465;-76
2023/08/07 12:00:54;;;;;;;1.42;0.65;;;15.30;99.90;;;;;;5014360;28;20022;-76
2023/08/07 12:03:28;;;;;;;1.35;0.75;;;15.50;99.90;;;;;;5013841;28;20034;-77
2023/08/07 12:05:55;;;;;;;2.00;0.70;;;15.60;99.90;;;;;;5014344;28;20014;-76
2023/08/07 12:08:21;;;;;;;1.27;0.60;;;15.80;99.90;;;;;;5013132;28;20076;-76
2023/08/07 12:11:07;;;;;;;1.98;0.55;;;16.10;99.90;;;;;;5014266;28;20022;-77
2023/08/07 12:13:36;;;;;;;1.20;0.60;;;16.30;99.90;;;;;;5014387;28;20027;-77
2023/08/07 12:16:05;;;;;;;1.17;0.70;;;16.50;99.90;;;;;;5014240;28;20476;-77
2023/08/07 12:18:31;;;;;;;1.58;0.70;;;16.60;99.90;;;;;;5013619;28;20067;-77
2023/08/07 12:21:02;;;;;;;2.25;0.85;;;16.70;99.90;;;;;;5007792;28;20060;-77
2023/08/07 12:23:28;;;;;;;2.30;0.90;;;16.60;99.90;;;;;;4995694;28;20555;-77
2023/08/07 12:25:54;;;;;;;2.28;1.00;;;16.40;99.90;;;;;;5002798;28;20030;-77
2023/08/07 12:28:21;;;;;;;2.05;1.30;;;16.20;99.90;;;;;;5012758;28;20041;-77
2023/08/07 12:30:47;;;;;;;2.13;0.90;;;16.10;99.90;;;;;;5012552;28;20026;-77
2023/08/07 12:33:14;;;;;;;2.72;1.10;;;15.90;99.90;;;;;;5008331;28;20045;-77
2023/08/07 12:35:41;;;;;;;1.95;1.08;;;15.70;99.90;;;;;;5000733;28;20472;-77
2023/08/07 12:38:07;;;;;;;1.73;0.80;;;15.50;99.90;;;;;;5011465;28;20508;-77
2023/08/07 12:40:33;;;;;;;2.70;0.90;;;15.30;99.90;;;;;;5012734;28;20400;-77
2023/08/07 12:42:59;;;;;;;3.70;0.90;;;15.20;99.90;;;;;;5011421;28;20030;-77
2023/08/07 12:45:24;;;;;;;1.80;0.80;;;15.10;99.90;;;;;;5012061;28;20481;-76
2023/08/07 12:47:50;;;;;;;3.30;1.08;;;14.90;99.90;;;;;;5011696;28;20025;-76
2023/08/07 12:50:16;;;;;;;1.40;0.80;;;14.90;99.90;;;;;;5013285;28;20105;-76